createdAt,value
2018-10-09T00:00:20.742Z,0.00
2018-10-09T00:01:20.732Z,0.00
2018-10-09T00:02:20.722Z,0.00
2018-10-09T00:03:20.714Z,0.00
2018-10-09T00:04:20.705Z,0.00
2018-10-09T00:05:20.696Z,0.00
2018-10-09T00:06:20.686Z,0.00
2018-10-09T00:07:20.678Z,0.00
2018-10-09T00:08:20.669Z,0.00
2018-10-09T00:09:20.659Z,0.00
2018-10-09T00:10:20.650Z,0.00
2018-10-09T00:11:20.643Z,0.00
2018-10-09T00:12:20.632Z,0.00
2018-10-09T00:13:20.625Z,0.00
2018-10-09T00:14:20.613Z,0.00
2018-10-09T00:15:20.605Z,0.00
2018-10-09T00:16:20.595Z,0.00
2018-10-09T00:17:20.587Z,0.00
2018-10-09T00:18:20.577Z,0.00
2018-10-09T00:19:20.567Z,0.00
2018-10-09T00:20:20.559Z,0.00
2018-10-09T00:21:20.551Z,0.00
2018-10-09T00:22:20.540Z,0.00
2018-10-09T00:23:20.531Z,0.00
2018-10-09T00:24:20.523Z,0.00
2018-10-09T00:25:20.556Z,0.00
2018-10-09T00:26:20.504Z,0.00
2018-10-09T00:27:20.494Z,0.00
2018-10-09T00:28:20.486Z,0.00
2018-10-09T00:29:20.478Z,0.00
2018-10-09T00:30:20.467Z,0.00
2018-10-09T00:31:20.458Z,0.00
2018-10-09T00:32:20.449Z,0.00
2018-10-09T00:33:20.441Z,0.00
2018-10-09T00:34:20.431Z,0.00
2018-10-09T00:35:20.423Z,0.00
2018-10-09T00:36:20.413Z,0.00
2018-10-09T00:37:20.405Z,0.00
2018-10-09T00:38:20.394Z,0.00
2018-10-09T00:39:20.388Z,0.00
2018-10-09T00:40:20.377Z,0.00
2018-10-09T00:41:20.371Z,0.00
2018-10-09T00:42:20.358Z,0.00
2018-10-09T00:43:20.349Z,0.00
2018-10-09T00:44:20.341Z,0.00
2018-10-09T00:45:20.332Z,0.00
2018-10-09T00:46:20.322Z,0.00
2018-10-09T00:47:20.313Z,0.00
2018-10-09T00:48:20.305Z,0.00
2018-10-09T00:49:20.296Z,0.00
2018-10-09T00:50:20.287Z,0.00
2018-10-09T00:51:20.277Z,0.00
2018-10-09T00:52:20.268Z,0.00
2018-10-09T00:53:20.258Z,0.00
2018-10-09T00:54:20.249Z,0.00
2018-10-09T00:55:20.241Z,0.00
2018-10-09T00:56:20.231Z,0.00
2018-10-09T00:57:20.222Z,0.00
2018-10-09T00:58:20.212Z,0.00
2018-10-09T00:59:20.204Z,0.00
2018-10-09T01:00:20.195Z,0.00
2018-10-09T01:01:20.187Z,0.00
2018-10-09T01:02:20.176Z,0.00
2018-10-09T01:03:20.169Z,0.00
2018-10-09T01:04:20.159Z,0.00
2018-10-09T01:05:20.152Z,0.00
2018-10-09T01:06:20.141Z,0.00
2018-10-09T01:07:20.132Z,0.00
2018-10-09T01:08:20.124Z,0.00
2018-10-09T01:09:20.190Z,0.00
2018-10-09T01:10:20.106Z,0.00
2018-10-09T01:11:20.096Z,0.00
2018-10-09T01:12:20.087Z,0.00
2018-10-09T01:13:20.078Z,0.00
2018-10-09T01:14:20.069Z,0.00
2018-10-09T01:15:20.060Z,0.00
2018-10-09T01:16:20.050Z,0.00
2018-10-09T01:17:20.044Z,0.00
2018-10-09T01:18:20.032Z,0.00
2018-10-09T01:19:20.023Z,0.00
2018-10-09T01:20:20.014Z,0.00
2018-10-09T01:21:20.005Z,0.00
2018-10-09T01:22:19.998Z,0.00
2018-10-09T01:23:19.987Z,0.00
2018-10-09T01:24:19.980Z,0.00
2018-10-09T01:25:19.968Z,0.00
2018-10-09T01:26:19.959Z,0.00
2018-10-09T01:27:19.951Z,0.00
2018-10-09T01:28:19.942Z,0.00
2018-10-09T01:29:19.993Z,0.00
2018-10-09T01:30:19.923Z,0.00
2018-10-09T01:31:19.914Z,0.00
2018-10-09T01:32:19.905Z,0.00
2018-10-09T01:33:19.898Z,0.00
2018-10-09T01:34:19.887Z,0.00
2018-10-09T01:35:19.878Z,0.00
2018-10-09T01:36:19.868Z,0.00
2018-10-09T01:37:19.867Z,0.00
2018-10-09T01:38:19.848Z,0.00
2018-10-09T01:39:19.841Z,0.00
2018-10-09T01:40:19.832Z,0.00
2018-10-09T01:41:19.822Z,0.00
2018-10-09T01:42:19.813Z,0.00
2018-10-09T01:43:19.804Z,0.00
2018-10-09T01:44:19.795Z,0.00
2018-10-09T01:45:19.786Z,0.00
2018-10-09T01:46:19.776Z,0.00
2018-10-09T01:47:19.769Z,0.00
2018-10-09T01:48:19.760Z,0.00
2018-10-09T01:49:19.751Z,0.00
2018-10-09T01:50:19.739Z,0.00
2018-10-09T01:51:19.731Z,0.00
2018-10-09T01:52:19.721Z,0.00
2018-10-09T01:53:19.715Z,0.00
2018-10-09T01:54:19.705Z,0.00
2018-10-09T01:55:19.697Z,0.00
2018-10-09T01:56:19.685Z,0.00
2018-10-09T01:57:19.678Z,0.00
2018-10-09T01:58:19.668Z,0.00
2018-10-09T01:59:19.658Z,0.00
2018-10-09T02:00:19.650Z,0.00
2018-10-09T02:01:19.644Z,0.00
2018-10-09T02:02:19.634Z,0.00
2018-10-09T02:03:19.622Z,0.00
2018-10-09T02:04:19.612Z,0.00
2018-10-09T02:05:19.603Z,0.00
2018-10-09T02:06:19.602Z,0.00
2018-10-09T02:07:19.586Z,0.00
2018-10-09T02:08:19.578Z,0.00
2018-10-09T02:09:19.569Z,0.00
2018-10-09T02:10:19.558Z,0.00
2018-10-09T02:11:19.549Z,0.00
2018-10-09T02:12:19.540Z,0.00
2018-10-09T02:13:19.535Z,0.00
2018-10-09T02:14:19.522Z,0.00
2018-10-09T02:15:19.513Z,0.00
2018-10-09T02:16:19.504Z,0.00
2018-10-09T02:17:19.495Z,0.00
2018-10-09T02:18:19.486Z,0.00
2018-10-09T02:19:19.477Z,0.00
2018-10-09T02:20:19.467Z,0.00
2018-10-09T02:21:19.461Z,0.00
2018-10-09T02:22:19.449Z,0.00
2018-10-09T02:23:19.439Z,0.00
2018-10-09T02:24:19.433Z,0.00
2018-10-09T02:25:19.423Z,0.00
2018-10-09T02:26:19.414Z,0.00
2018-10-09T02:27:19.404Z,0.00
2018-10-09T02:28:19.395Z,0.00
2018-10-09T02:29:19.391Z,0.00
2018-10-09T02:30:19.376Z,0.00
2018-10-09T02:31:19.367Z,0.00
2018-10-09T02:32:19.359Z,0.00
2018-10-09T02:33:19.348Z,0.00
2018-10-09T02:34:19.338Z,0.00
2018-10-09T02:35:19.330Z,0.00
2018-10-09T02:36:19.321Z,0.00
2018-10-09T02:37:19.312Z,0.00
2018-10-09T02:38:19.303Z,0.00
2018-10-09T02:39:19.293Z,0.00
2018-10-09T02:40:19.284Z,0.00
2018-10-09T02:41:19.278Z,0.00
2018-10-09T02:42:19.266Z,0.00
2018-10-09T02:43:19.261Z,0.00
2018-10-09T02:44:19.249Z,0.00
2018-10-09T02:45:19.239Z,0.00
2018-10-09T02:46:19.233Z,0.00
2018-10-09T02:47:19.227Z,0.00
2018-10-09T02:48:19.211Z,0.00
2018-10-09T02:49:19.202Z,0.00
2018-10-09T02:50:19.193Z,0.00
2018-10-09T02:51:19.184Z,0.00
2018-10-09T02:52:19.175Z,0.00
2018-10-09T02:53:19.169Z,0.00
2018-10-09T02:54:19.155Z,0.00
2018-10-09T02:55:19.147Z,0.00
2018-10-09T02:56:19.138Z,0.00
2018-10-09T02:57:19.129Z,0.00
2018-10-09T02:58:19.119Z,0.00
2018-10-09T02:59:19.115Z,0.00
2018-10-09T03:00:19.104Z,0.00
2018-10-09T03:01:19.103Z,0.00
2018-10-09T03:02:19.083Z,0.00
2018-10-09T03:03:19.075Z,0.00
2018-10-09T03:04:19.066Z,0.00
2018-10-09T03:05:19.059Z,0.00
2018-10-09T03:06:19.046Z,0.00
2018-10-09T03:07:19.037Z,0.00
2018-10-09T03:08:19.042Z,0.00
2018-10-09T03:09:19.020Z,0.00
2018-10-09T03:10:19.010Z,0.00
2018-10-09T03:11:19.001Z,0.00
2018-10-09T03:12:18.998Z,0.00
2018-10-09T03:13:18.983Z,0.00
2018-10-09T03:14:18.973Z,0.00
2018-10-09T03:15:18.965Z,0.00
2018-10-09T03:16:18.959Z,0.00
2018-10-09T03:17:18.946Z,0.00
2018-10-09T03:18:18.937Z,0.00
2018-10-09T03:19:18.929Z,0.00
2018-10-09T03:20:18.919Z,0.00
2018-10-09T03:21:18.910Z,0.00
2018-10-09T03:22:18.900Z,0.00
2018-10-09T03:23:18.891Z,0.00
2018-10-09T03:24:18.882Z,0.00
2018-10-09T03:25:18.873Z,0.00
2018-10-09T03:26:18.864Z,0.00
2018-10-09T03:27:18.856Z,0.00
2018-10-09T03:28:18.846Z,0.00
2018-10-09T03:29:18.837Z,0.00
2018-10-09T03:30:18.829Z,0.00
2018-10-09T03:31:18.819Z,0.00
2018-10-09T03:32:18.809Z,0.00
2018-10-09T03:33:18.800Z,0.00
2018-10-09T03:34:18.792Z,0.00
2018-10-09T03:35:18.782Z,0.00
2018-10-09T03:36:18.773Z,0.00
2018-10-09T03:37:18.764Z,0.00
2018-10-09T03:38:18.754Z,0.00
2018-10-09T03:39:18.745Z,0.00
2018-10-09T03:40:18.736Z,0.00
2018-10-09T03:41:18.727Z,0.00
2018-10-09T03:42:18.719Z,0.00
2018-10-09T03:43:18.709Z,0.00
2018-10-09T03:44:18.699Z,0.00
2018-10-09T03:45:18.690Z,0.00
2018-10-09T03:46:18.680Z,0.00
2018-10-09T03:47:18.671Z,0.00
2018-10-09T03:48:18.663Z,0.00
2018-10-09T03:49:18.653Z,0.00
2018-10-09T03:50:18.644Z,0.00
2018-10-09T03:51:18.638Z,0.00
2018-10-09T03:52:18.626Z,0.00
2018-10-09T03:53:18.617Z,0.00
2018-10-09T03:54:18.606Z,0.00
2018-10-09T03:55:18.598Z,0.00
2018-10-09T03:56:18.589Z,0.00
2018-10-09T03:57:18.581Z,0.00
2018-10-09T03:58:18.570Z,0.00
2018-10-09T03:59:18.563Z,0.00
2018-10-09T04:00:18.552Z,0.00
2018-10-09T04:01:18.544Z,0.00
2018-10-09T04:02:18.535Z,0.00
2018-10-09T04:03:18.525Z,0.00
2018-10-09T04:04:18.519Z,0.00
2018-10-09T04:05:18.508Z,0.00
2018-10-09T04:06:18.497Z,0.00
2018-10-09T04:07:18.488Z,0.00
2018-10-09T04:08:18.480Z,0.00
2018-10-09T04:09:18.537Z,0.00
2018-10-09T04:10:18.461Z,0.00
2018-10-09T04:11:18.454Z,0.00
2018-10-09T04:12:18.442Z,0.00
2018-10-09T04:13:18.434Z,0.00
2018-10-09T04:14:18.425Z,0.00
2018-10-09T04:15:18.415Z,0.00
2018-10-09T04:16:18.406Z,0.00
2018-10-09T04:17:18.398Z,0.00
2018-10-09T04:18:18.388Z,0.00
2018-10-09T04:19:18.381Z,0.00
2018-10-09T04:20:18.368Z,0.00
2018-10-09T04:21:18.360Z,0.00
2018-10-09T04:22:18.351Z,0.00
2018-10-09T04:23:18.342Z,0.00
2018-10-09T04:24:18.333Z,0.00
2018-10-09T04:25:18.324Z,0.00
2018-10-09T04:26:18.313Z,0.00
2018-10-09T04:27:18.307Z,0.00
2018-10-09T04:28:18.296Z,0.00
2018-10-09T04:29:18.302Z,0.00
2018-10-09T04:30:18.278Z,0.00
2018-10-09T04:31:18.269Z,0.00
2018-10-09T04:32:18.260Z,0.00
2018-10-09T04:33:18.252Z,0.00
2018-10-09T04:34:18.241Z,0.00
2018-10-09T04:35:18.255Z,0.00
2018-10-09T04:36:18.225Z,0.00
2018-10-09T04:37:18.215Z,0.00
2018-10-09T04:38:18.205Z,0.00
2018-10-09T04:39:18.197Z,0.00
2018-10-09T04:40:18.187Z,0.00
2018-10-09T04:41:18.178Z,0.00
2018-10-09T04:42:18.168Z,0.00
2018-10-09T04:43:18.160Z,0.00
2018-10-09T04:44:18.151Z,0.00
2018-10-09T04:45:18.146Z,0.00
2018-10-09T04:46:18.132Z,0.00
2018-10-09T04:47:18.123Z,0.00
2018-10-09T04:48:18.114Z,0.00
2018-10-09T04:49:18.105Z,0.00
2018-10-09T04:50:18.095Z,0.00
2018-10-09T04:51:18.085Z,0.00
2018-10-09T04:52:18.076Z,0.00
2018-10-09T04:53:18.068Z,0.00
2018-10-09T04:54:18.057Z,0.00
2018-10-09T04:55:18.050Z,0.00
2018-10-09T04:56:18.041Z,0.00
2018-10-09T04:57:18.031Z,0.00
2018-10-09T04:58:18.021Z,0.00
2018-10-09T04:59:18.013Z,0.00
2018-10-09T05:00:18.006Z,0.00
2018-10-09T05:01:17.997Z,0.00
2018-10-09T05:02:17.988Z,0.00
2018-10-09T05:03:17.975Z,0.00
2018-10-09T05:04:17.966Z,0.00
2018-10-09T05:05:17.958Z,0.00
2018-10-09T05:06:17.948Z,0.00
2018-10-09T05:07:17.939Z,0.00
2018-10-09T05:08:17.931Z,0.00
2018-10-09T05:09:17.921Z,0.00
2018-10-09T05:10:17.911Z,0.00
2018-10-09T05:11:17.902Z,0.00
2018-10-09T05:12:17.893Z,0.00
2018-10-09T05:13:17.884Z,0.00
2018-10-09T05:14:17.874Z,0.00
2018-10-09T05:15:17.865Z,0.00
2018-10-09T05:16:17.857Z,0.00
2018-10-09T05:17:17.848Z,4.00
2018-10-09T05:18:17.839Z,0.00
2018-10-09T05:19:17.830Z,0.00
2018-10-09T05:20:17.820Z,4.00
2018-10-09T05:21:17.812Z,4.00
2018-10-09T05:22:17.805Z,4.00
2018-10-09T05:23:17.855Z,4.00
2018-10-09T05:24:17.793Z,4.00
2018-10-09T05:25:17.783Z,8.00
2018-10-09T05:26:17.763Z,4.00
2018-10-09T05:27:17.755Z,4.00
2018-10-09T05:28:17.746Z,8.00
2018-10-09T05:29:17.737Z,12.00
2018-10-09T05:30:17.728Z,12.00
2018-10-09T05:31:17.805Z,12.00
2018-10-09T05:32:17.710Z,12.00
2018-10-09T05:33:17.701Z,12.00
2018-10-09T05:34:17.691Z,16.00
2018-10-09T05:35:17.789Z,20.00
2018-10-09T05:36:17.674Z,20.00
2018-10-09T05:37:17.665Z,24.00
2018-10-09T05:38:17.655Z,24.00
2018-10-09T05:39:17.646Z,28.00
2018-10-09T05:40:17.637Z,32.00
2018-10-09T05:41:17.628Z,32.00
2018-10-09T05:42:17.618Z,36.00
2018-10-09T05:43:17.610Z,40.00
2018-10-09T05:44:17.695Z,44.00
2018-10-09T05:45:17.594Z,48.00
2018-10-09T05:46:17.583Z,52.00
2018-10-09T05:47:17.573Z,52.00
2018-10-09T05:48:17.565Z,56.00
2018-10-09T05:49:17.556Z,56.00
2018-10-09T05:50:17.547Z,60.00
2018-10-09T05:51:17.538Z,60.00
2018-10-09T05:52:17.529Z,64.00
2018-10-09T05:53:17.522Z,68.00
2018-10-09T05:54:17.511Z,68.00
2018-10-09T05:55:17.502Z,72.00
2018-10-09T05:56:17.494Z,76.00
2018-10-09T05:57:17.489Z,76.00
2018-10-09T05:58:17.475Z,76.00
2018-10-09T05:59:17.466Z,84.00
2018-10-09T06:00:17.460Z,88.00
2018-10-09T06:01:17.448Z,88.00
2018-10-09T06:02:17.439Z,96.00
2018-10-09T06:03:17.429Z,96.00
2018-10-09T06:04:17.422Z,104.00
2018-10-09T06:05:17.412Z,112.00
2018-10-09T06:06:17.402Z,116.00
2018-10-09T06:07:17.395Z,120.00
2018-10-09T06:08:17.386Z,128.00
2018-10-09T06:09:17.378Z,132.00
2018-10-09T06:10:17.368Z,140.00
2018-10-09T06:11:17.359Z,144.00
2018-10-09T06:12:17.349Z,152.00
2018-10-09T06:13:17.341Z,164.00
2018-10-09T06:14:17.331Z,168.00
2018-10-09T06:15:17.345Z,176.00
2018-10-09T06:16:17.314Z,188.00
2018-10-09T06:17:17.305Z,196.00
2018-10-09T06:18:17.297Z,208.00
2018-10-09T06:19:17.286Z,220.00
2018-10-09T06:20:17.278Z,232.00
2018-10-09T06:21:17.269Z,240.00
2018-10-09T06:22:17.327Z,248.00
2018-10-09T06:23:17.250Z,256.00
2018-10-09T06:24:17.242Z,260.00
2018-10-09T06:25:17.237Z,272.00
2018-10-09T06:26:17.223Z,280.00
2018-10-09T06:27:17.217Z,292.00
2018-10-09T06:28:17.213Z,300.00
2018-10-09T06:29:17.197Z,308.00
2018-10-09T06:30:17.196Z,320.00
2018-10-09T06:31:17.179Z,332.00
2018-10-09T06:32:17.171Z,340.00
2018-10-09T06:33:17.160Z,352.00
2018-10-09T06:34:17.155Z,376.00
2018-10-09T06:35:17.143Z,400.00
2018-10-09T06:36:17.135Z,428.00
2018-10-09T06:37:17.221Z,456.00
2018-10-09T06:38:17.118Z,480.00
2018-10-09T06:39:17.107Z,504.00
2018-10-09T06:40:17.105Z,524.00
2018-10-09T06:41:17.091Z,544.00
2018-10-09T06:42:17.083Z,568.00
2018-10-09T06:43:17.072Z,584.00
2018-10-09T06:44:17.088Z,612.00
2018-10-09T06:45:17.055Z,648.00
2018-10-09T06:46:17.046Z,696.00
2018-10-09T06:47:17.037Z,752.00
2018-10-09T06:48:17.028Z,804.00
2018-10-09T06:49:17.020Z,868.00
2018-10-09T06:50:17.011Z,920.00
2018-10-09T06:51:17.002Z,948.00
2018-10-09T06:52:16.994Z,964.00
2018-10-09T06:53:16.999Z,976.00
2018-10-09T06:54:17.055Z,984.00
2018-10-09T06:55:16.968Z,1000.00
2018-10-09T06:56:16.960Z,1016.00
2018-10-09T06:57:16.951Z,1044.00
2018-10-09T06:58:16.942Z,1080.00
2018-10-09T06:59:16.934Z,1132.00
2018-10-09T07:00:16.996Z,1192.00
2018-10-09T07:01:16.916Z,1248.00
2018-10-09T07:02:16.907Z,1300.00
2018-10-09T07:03:16.902Z,1344.00
2018-10-09T07:04:16.891Z,1380.00
2018-10-09T07:05:16.883Z,1388.00
2018-10-09T07:06:16.874Z,1380.00
2018-10-09T07:07:16.865Z,1364.00
2018-10-09T07:08:16.860Z,1348.00
2018-10-09T07:09:16.860Z,1332.00
2018-10-09T07:10:16.840Z,1316.00
2018-10-09T07:11:17.021Z,1288.00
2018-10-09T07:12:16.824Z,1240.00
2018-10-09T07:13:16.816Z,1180.00
2018-10-09T07:14:16.808Z,1104.00
2018-10-09T07:15:16.800Z,1048.00
2018-10-09T07:16:16.791Z,996.00
2018-10-09T07:17:16.784Z,964.00
2018-10-09T07:18:16.775Z,952.00
2018-10-09T07:19:16.766Z,956.00
2018-10-09T07:20:16.761Z,984.00
2018-10-09T07:21:16.749Z,1008.00
2018-10-09T07:22:16.743Z,1036.00
2018-10-09T07:23:16.734Z,1064.00
2018-10-09T07:24:16.726Z,1088.00
2018-10-09T07:25:16.717Z,1100.00
2018-10-09T07:26:16.710Z,1112.00
2018-10-09T07:27:16.701Z,1156.00
2018-10-09T07:28:16.694Z,1216.00
2018-10-09T07:29:16.686Z,1272.00
2018-10-09T07:30:16.675Z,1320.00
2018-10-09T07:31:16.671Z,1368.00
2018-10-09T07:32:16.660Z,1392.00
2018-10-09T07:33:16.653Z,1408.00
2018-10-09T07:34:16.645Z,1392.00
2018-10-09T07:35:16.637Z,1376.00
2018-10-09T07:36:16.629Z,1364.00
2018-10-09T07:37:16.621Z,1384.00
2018-10-09T07:38:16.612Z,1408.00
2018-10-09T07:39:16.604Z,1432.00
2018-10-09T07:40:16.597Z,1456.00
2018-10-09T07:41:16.590Z,1484.00
2018-10-09T07:42:16.580Z,1484.00
2018-10-09T07:43:16.572Z,1492.00
2018-10-09T07:44:16.624Z,1496.00
2018-10-09T07:45:16.558Z,1508.00
2018-10-09T07:46:16.548Z,1508.00
2018-10-09T07:47:16.540Z,1512.00
2018-10-09T07:48:16.532Z,1512.00
2018-10-09T07:49:16.525Z,1504.00
2018-10-09T07:50:16.519Z,1492.00
2018-10-09T07:51:16.508Z,1492.00
2018-10-09T07:52:16.499Z,1488.00
2018-10-09T07:53:16.493Z,1484.00
2018-10-09T07:54:16.481Z,1468.00
2018-10-09T07:55:16.476Z,1452.00
2018-10-09T07:56:16.468Z,1444.00
2018-10-09T07:57:16.460Z,1432.00
2018-10-09T07:58:16.452Z,1428.00
2018-10-09T07:59:16.449Z,1416.00
2018-10-09T08:00:16.438Z,1400.00
2018-10-09T08:01:16.432Z,1396.00
2018-10-09T08:02:16.419Z,1400.00
2018-10-09T08:03:16.412Z,1412.00
2018-10-09T08:04:16.404Z,1432.00
2018-10-09T08:05:16.397Z,1456.00
2018-10-09T08:06:16.389Z,1476.00
2018-10-09T08:07:16.381Z,1488.00
2018-10-09T08:08:16.373Z,1492.00
2018-10-09T08:09:16.366Z,1488.00
2018-10-09T08:10:16.392Z,1468.00
2018-10-09T08:11:16.350Z,1464.00
2018-10-09T08:12:16.343Z,1480.00
2018-10-09T08:13:16.335Z,1496.00
2018-10-09T08:14:16.327Z,1524.00
2018-10-09T08:15:16.327Z,1544.00
2018-10-09T08:16:16.360Z,1564.00
2018-10-09T08:17:16.304Z,1564.00
2018-10-09T08:18:16.297Z,1568.00
2018-10-09T08:19:16.292Z,1572.00
2018-10-09T08:20:16.282Z,1568.00
2018-10-09T08:21:16.274Z,1560.00
2018-10-09T08:22:16.306Z,1536.00
2018-10-09T08:23:16.259Z,1540.00
2018-10-09T08:24:16.252Z,1552.00
2018-10-09T08:25:16.244Z,1596.00
2018-10-09T08:26:16.236Z,1616.00
2018-10-09T08:27:16.229Z,1628.00
2018-10-09T08:28:16.222Z,1624.00
2018-10-09T08:29:16.215Z,1620.00
2018-10-09T08:30:16.207Z,1624.00
2018-10-09T08:31:16.205Z,1632.00
2018-10-09T08:32:16.301Z,1636.00
2018-10-09T08:33:16.188Z,1636.00
2018-10-09T08:34:16.178Z,1620.00
2018-10-09T08:35:16.170Z,1588.00
2018-10-09T08:36:16.163Z,1556.00
2018-10-09T08:37:16.162Z,1536.00
2018-10-09T08:38:16.147Z,1512.00
2018-10-09T08:39:16.141Z,1460.00
2018-10-09T08:40:16.196Z,1424.00
2018-10-09T08:41:16.180Z,1408.00
2018-10-09T08:42:16.118Z,1420.00
2018-10-09T08:43:16.111Z,1420.00
2018-10-09T08:44:16.104Z,1424.00
2018-10-09T08:45:16.097Z,1428.00
2018-10-09T08:46:16.107Z,1432.00
2018-10-09T08:47:16.084Z,1432.00
2018-10-09T08:48:16.074Z,1428.00
2018-10-09T08:49:16.068Z,1444.00
2018-10-09T08:50:16.060Z,1452.00
2018-10-09T08:51:16.053Z,1452.00
2018-10-09T08:52:16.046Z,1436.00
2018-10-09T08:53:16.044Z,1432.00
2018-10-09T08:54:16.032Z,1440.00
2018-10-09T08:55:16.025Z,1420.00
2018-10-09T08:56:16.022Z,1428.00
2018-10-09T08:57:16.063Z,1416.00
2018-10-09T08:58:16.004Z,1352.00
2018-10-09T08:59:15.997Z,1288.00
2018-10-09T09:00:16.008Z,1248.00
2018-10-09T09:01:16.023Z,1256.00
2018-10-09T09:02:15.978Z,1308.00
2018-10-09T09:03:15.971Z,1384.00
2018-10-09T09:04:15.965Z,1420.00
2018-10-09T09:05:15.958Z,1448.00
2018-10-09T09:06:15.950Z,1464.00
2018-10-09T09:07:15.943Z,1476.00
2018-10-09T09:08:15.937Z,1480.00
2018-10-09T09:09:15.930Z,1488.00
2018-10-09T09:10:15.923Z,1452.00
2018-10-09T09:11:15.918Z,1412.00
2018-10-09T09:12:15.911Z,1420.00
2018-10-09T09:13:15.902Z,1432.00
2018-10-09T09:14:15.900Z,1432.00
2018-10-09T09:15:15.900Z,1436.00
2018-10-09T09:16:15.882Z,1472.00
2018-10-09T09:17:15.873Z,1520.00
2018-10-09T09:18:15.869Z,1584.00
2018-10-09T09:19:15.861Z,1652.00
2018-10-09T09:20:15.854Z,1652.00
2018-10-09T09:21:15.876Z,1600.00
2018-10-09T09:22:15.844Z,1528.00
2018-10-09T09:23:15.834Z,1520.00
2018-10-09T09:24:15.828Z,1568.00
2018-10-09T09:25:15.822Z,1580.00
2018-10-09T09:26:15.908Z,1560.00
2018-10-09T09:27:15.906Z,1536.00
2018-10-09T09:28:15.801Z,1516.00
2018-10-09T09:29:15.795Z,1512.00
2018-10-09T09:30:15.791Z,1528.00
2018-10-09T09:31:15.782Z,1560.00
2018-10-09T09:32:15.777Z,1628.00
2018-10-09T09:33:15.830Z,1672.00
2018-10-09T09:34:15.768Z,1648.00
2018-10-09T09:35:15.757Z,1556.00
2018-10-09T09:36:15.751Z,1504.00
2018-10-09T09:37:15.744Z,1476.00
2018-10-09T09:38:15.744Z,1440.00
2018-10-09T09:39:15.732Z,1408.00
2018-10-09T09:40:15.725Z,1428.00
2018-10-09T09:41:15.721Z,1412.00
2018-10-09T09:42:15.717Z,1376.00
2018-10-09T09:43:15.706Z,1368.00
2018-10-09T09:44:15.700Z,1376.00
2018-10-09T09:45:15.695Z,1392.00
2018-10-09T09:46:15.735Z,1400.00
2018-10-09T09:47:15.681Z,1444.00
2018-10-09T09:48:15.675Z,1456.00
2018-10-09T09:49:15.669Z,1448.00
2018-10-09T09:50:15.663Z,1432.00
2018-10-09T09:51:15.656Z,1444.00
2018-10-09T09:52:15.816Z,1404.00
2018-10-09T09:53:15.645Z,1384.00
2018-10-09T09:54:15.637Z,1380.00
2018-10-09T09:55:15.632Z,1376.00
2018-10-09T09:56:15.629Z,1388.00
2018-10-09T09:57:15.623Z,1416.00
2018-10-09T09:58:15.718Z,1424.00
2018-10-09T09:59:15.680Z,1408.00
2018-10-09T10:00:15.605Z,1372.00
2018-10-09T10:01:15.596Z,1328.00
2018-10-09T10:02:15.589Z,1288.00
2018-10-09T10:03:15.582Z,1244.00
2018-10-09T10:04:15.587Z,1224.00
2018-10-09T10:05:15.572Z,1172.00
2018-10-09T10:06:15.564Z,1144.00
2018-10-09T10:07:15.559Z,1120.00
2018-10-09T10:08:15.552Z,1072.00
2018-10-09T10:09:15.601Z,1072.00
2018-10-09T10:10:15.540Z,1148.00
2018-10-09T10:11:15.534Z,1248.00
2018-10-09T10:12:15.528Z,1324.00
2018-10-09T10:13:15.522Z,1372.00
2018-10-09T10:14:15.516Z,1428.00
2018-10-09T10:15:15.510Z,1488.00
2018-10-09T10:16:15.504Z,1520.00
2018-10-09T10:17:15.503Z,1504.00
2018-10-09T10:18:15.494Z,1484.00
2018-10-09T10:19:15.487Z,1460.00
2018-10-09T10:20:15.479Z,1460.00
2018-10-09T10:21:15.516Z,1476.00
2018-10-09T10:22:15.466Z,1500.00
2018-10-09T10:23:15.462Z,1508.00
2018-10-09T10:24:15.455Z,1508.00
2018-10-09T10:25:15.451Z,1544.00
2018-10-09T10:26:15.441Z,1564.00
2018-10-09T10:27:15.436Z,1592.00
2018-10-09T10:28:15.430Z,1632.00
2018-10-09T10:29:15.489Z,1640.00
2018-10-09T10:30:15.415Z,1612.00
2018-10-09T10:31:15.411Z,1536.00
2018-10-09T10:32:15.403Z,1444.00
2018-10-09T10:33:15.400Z,1332.00
2018-10-09T10:34:15.390Z,1204.00
2018-10-09T10:35:15.388Z,1084.00
2018-10-09T10:36:15.383Z,1068.00
2018-10-09T10:37:15.389Z,1116.00
2018-10-09T10:38:15.371Z,1176.00
2018-10-09T10:39:15.362Z,1244.00
2018-10-09T10:40:15.353Z,1332.00
2018-10-09T10:41:15.347Z,1416.00
2018-10-09T10:42:15.386Z,1448.00
2018-10-09T10:43:15.334Z,1396.00
2018-10-09T10:44:15.328Z,1296.00
2018-10-09T10:45:15.322Z,1312.00
2018-10-09T10:46:15.313Z,1420.00
2018-10-09T10:47:15.307Z,1564.00
2018-10-09T10:48:15.301Z,1692.00
2018-10-09T10:49:15.338Z,1756.00
2018-10-09T10:50:15.288Z,1844.00
2018-10-09T10:51:15.281Z,1880.00
2018-10-09T10:52:15.275Z,1888.00
2018-10-09T10:53:15.270Z,1932.00
2018-10-09T10:54:15.261Z,2044.00
2018-10-09T10:55:15.255Z,2104.00
2018-10-09T10:56:15.249Z,2136.00
2018-10-09T10:57:15.243Z,2228.00
2018-10-09T10:58:15.235Z,2244.00
2018-10-09T10:59:15.229Z,2200.00
2018-10-09T11:00:15.230Z,2120.00
2018-10-09T11:01:15.253Z,2120.00
2018-10-09T11:02:15.209Z,2092.00
2018-10-09T11:03:15.203Z,2024.00
2018-10-09T11:04:15.197Z,1988.00
2018-10-09T11:05:15.191Z,1980.00
2018-10-09T11:06:15.183Z,1984.00
2018-10-09T11:07:15.177Z,1944.00
2018-10-09T11:08:15.183Z,1896.00
2018-10-09T11:09:15.165Z,1908.00
2018-10-09T11:10:15.158Z,1988.00
2018-10-09T11:11:15.151Z,2052.00
2018-10-09T11:12:15.145Z,2116.00
2018-10-09T11:13:15.139Z,2188.00
2018-10-09T11:14:15.134Z,2304.00
2018-10-09T11:15:15.126Z,2344.00
2018-10-09T11:16:15.120Z,2260.00
2018-10-09T11:17:15.115Z,2160.00
2018-10-09T11:18:15.108Z,2048.00
2018-10-09T11:19:15.101Z,2068.00
2018-10-09T11:20:15.096Z,2132.00
2018-10-09T11:21:15.125Z,2164.00
2018-10-09T11:22:15.081Z,2248.00
2018-10-09T11:23:15.076Z,2272.00
2018-10-09T11:24:15.069Z,2208.00
2018-10-09T11:25:15.064Z,2100.00
2018-10-09T11:26:15.057Z,2040.00
2018-10-09T11:27:15.050Z,2040.00
2018-10-09T11:28:15.045Z,2012.00
2018-10-09T11:29:15.039Z,1960.00
2018-10-09T11:30:15.032Z,1900.00
2018-10-09T11:31:15.024Z,1828.00
2018-10-09T11:32:15.073Z,1776.00
2018-10-09T11:33:15.013Z,1744.00
2018-10-09T11:34:15.006Z,1708.00
2018-10-09T11:35:15.000Z,1692.00
2018-10-09T11:36:14.993Z,1656.00
2018-10-09T11:37:14.989Z,1600.00
2018-10-09T11:38:14.980Z,1624.00
2018-10-09T11:39:14.974Z,1680.00
2018-10-09T11:40:14.971Z,1740.00
2018-10-09T11:41:14.962Z,1772.00
2018-10-09T11:42:14.956Z,1760.00
2018-10-09T11:43:14.951Z,1748.00
2018-10-09T11:44:14.943Z,1768.00
2018-10-09T11:45:14.938Z,1808.00
2018-10-09T11:46:14.931Z,1820.00
2018-10-09T11:47:14.924Z,1664.00
2018-10-09T11:48:14.918Z,1592.00
2018-10-09T11:49:14.915Z,1512.00
2018-10-09T11:50:14.904Z,1456.00
2018-10-09T11:51:14.901Z,1400.00
2018-10-09T11:52:14.894Z,1372.00
2018-10-09T11:53:14.887Z,1356.00
2018-10-09T11:54:14.880Z,1336.00
2018-10-09T11:55:14.874Z,1308.00
2018-10-09T11:56:14.867Z,1280.00
2018-10-09T11:57:14.861Z,1244.00
2018-10-09T11:58:14.855Z,1228.00
2018-10-09T11:59:14.848Z,1224.00
2018-10-09T12:00:14.842Z,1224.00
2018-10-09T12:01:14.836Z,1236.00
2018-10-09T12:02:14.828Z,1240.00
2018-10-09T12:03:14.822Z,1248.00
2018-10-09T12:04:14.820Z,1236.00
2018-10-09T12:05:14.809Z,1232.00
2018-10-09T12:06:14.803Z,1232.00
2018-10-09T12:07:14.796Z,1208.00
2018-10-09T12:08:14.789Z,1196.00
2018-10-09T12:09:14.783Z,1200.00
2018-10-09T12:10:14.775Z,1192.00
2018-10-09T12:11:14.769Z,1196.00
2018-10-09T12:12:14.762Z,1200.00
2018-10-09T12:13:14.758Z,1224.00
2018-10-09T12:14:14.748Z,1248.00
2018-10-09T12:15:14.741Z,1264.00
2018-10-09T12:16:14.738Z,1272.00
2018-10-09T12:17:14.728Z,1268.00
2018-10-09T12:18:14.722Z,1284.00
2018-10-09T12:19:14.714Z,1316.00
2018-10-09T12:20:14.707Z,1424.00
2018-10-09T12:21:14.752Z,1520.00
2018-10-09T12:22:14.693Z,1492.00
2018-10-09T12:23:14.686Z,1492.00
2018-10-09T12:24:14.780Z,1800.00
2018-10-09T12:25:14.673Z,1848.00
2018-10-09T12:26:14.669Z,1868.00
2018-10-09T12:27:14.709Z,1904.00
2018-10-09T12:28:14.653Z,2000.00
2018-10-09T12:29:14.646Z,2036.00
2018-10-09T12:30:14.643Z,2024.00
2018-10-09T12:31:14.632Z,2020.00
2018-10-09T12:32:14.624Z,2000.00
2018-10-09T12:33:14.623Z,2008.00
2018-10-09T12:34:14.612Z,2012.00
2018-10-09T12:35:14.606Z,2024.00
2018-10-09T12:36:14.602Z,2052.00
2018-10-09T12:37:14.593Z,2064.00
2018-10-09T12:38:14.600Z,2080.00
2018-10-09T12:39:14.580Z,2084.00